To NAV CANADA Home Page Login to a new session Search on AWWS site Disclaimer Vers la page française équivalente Tips FAQ What's new on the site To the Forecasts and Observations / NOTAM section To "File a Flight Plan" website Publications and other links Update of the User's profile FIC Telephone Numbers My Weather Data Folder Route Weather Data Regional Weather Data Local Weather Data To the Forecasts and Observations / NOTAM section
Request Generated 04/23/2018 at 17:11:47 UTC . Weather information available at that time is displayed.


Go to a specific product

Save this request - Inactive

METAR/TAF

If you find any discrepancies between the coded METAR/TAF and the plain language METAR/TAF please use the coded METAR/TAF. LWIS bulletins are not decoded in plain language.

OTTAWA/GATINEAU/QC    

METAR CYND 231700Z 20007KT 160V320 15SM SCT240 17/M07 A3039 RMK CI4 SLP294=
METAR
LOCATION
CYND - OTTAWA/GATINEAU/QC
DATE - TIME
23 APRIL 2018 - 1700 UTC
WIND
200 TRUE @ 7  KNOTS
VARIATION
160 <-> 320  DEG
VISIBILITY
15 STAT.  MILES
RUNWAY VISUAL RANGE
WEATHER
CLOUDINESS
SCATTERED CLOUDS (3/8 - 4/8) 24000  FT
TEMP / DEWPOINT
17 C / -7 C
ALTIMETER
30.39 IN HG
RECENT WEATHER
WIND SHEAR

METAR CYND 231600Z 19006KT 160V240 15SM SCT240 16/M03 A3042 RMK CI3 SLP304=
METAR
LOCATION
CYND - OTTAWA/GATINEAU/QC
DATE - TIME
23 APRIL 2018 - 1600 UTC
WIND
190 TRUE @ 6  KNOTS
VARIATION
160 <-> 240  DEG
VISIBILITY
15 STAT.  MILES
RUNWAY VISUAL RANGE
WEATHER
CLOUDINESS
SCATTERED CLOUDS (3/8 - 4/8) 24000  FT
TEMP / DEWPOINT
16 C / -3 C
ALTIMETER
30.42 IN HG
RECENT WEATHER
WIND SHEAR

METAR CYND 231500Z 00000KT 15SM SCT250 13/M03 A3044 RMK CI3 SLP311=
METAR
LOCATION
CYND - OTTAWA/GATINEAU/QC
DATE - TIME
23 APRIL 2018 - 1500 UTC
WIND
CALM
VISIBILITY
15 STAT.  MILES
RUNWAY VISUAL RANGE
WEATHER
CLOUDINESS
SCATTERED CLOUDS (3/8 - 4/8) 25000  FT
TEMP / DEWPOINT
13 C / -3 C
ALTIMETER
30.44 IN HG
RECENT WEATHER
WIND SHEAR

TAF CYND 231239Z 2313/2401 VRB03KT P6SM FEW250 BECMG 2317/2319 20008KT RMK NXT FCST BY 231800Z=
TAF
LOCATION

CYND - OTTAWA/GATINEAU/QC
VALIDITY [UTC]
23 APR - 1239 to
24 APR - 0100
 
TIMES
[UTC]
WIND
[DEGREES TRUE]
VISIBILITY
[STAT. MILES]
WEATHER
CLOUDINESS
[FEET AGL]
 
23 APR - 1300 to
24 APR - 0100
VARIABLE @ 3 KNOTS
6+
NIL
25000 FEW
BECOMING
23 APR - 1700 to
23 APR - 1900
200 @ 8 KNOTS
 
 
 
REMARKS
THE NEXT FORECAST WILL BE ISSUED BY 1800 UTC ON DAY 23


OTTAWA/MACDONALD-CARTIER INTL/ON    

METAR CYOW 231700Z 18009G15KT 140V270 15SM FEW220 18/M08 A3039 RMK CI1 SLP296=
METAR
LOCATION
CYOW - OTTAWA/MACDONALD-CARTIER INTL/ON
DATE - TIME
23 APRIL 2018 - 1700 UTC
WIND
180 TRUE @ 9  KNOTS
VARIATION
140 <-> 270  DEG
GUSTS
15 KNOTS
VISIBILITY
15 STAT.  MILES
RUNWAY VISUAL RANGE
WEATHER
CLOUDINESS
FEW CLOUDS (1/8 - 2/8) 22000  FT
TEMP / DEWPOINT
18 C / -8 C
ALTIMETER
30.39 IN HG
RECENT WEATHER
WIND SHEAR

METAR CYOW 231600Z 19007KT 150V230 15SM FEW220 16/M07 A3042 RMK CI1 CI TR SLP305=
METAR
LOCATION
CYOW - OTTAWA/MACDONALD-CARTIER INTL/ON
DATE - TIME
23 APRIL 2018 - 1600 UTC
WIND
190 TRUE @ 7  KNOTS
VARIATION
150 <-> 230  DEG
VISIBILITY
15 STAT.  MILES
RUNWAY VISUAL RANGE
WEATHER
CLOUDINESS
FEW CLOUDS (1/8 - 2/8) 22000  FT
TEMP / DEWPOINT
16 C / -7 C
ALTIMETER
30.42 IN HG
RECENT WEATHER
WIND SHEAR

METAR CYOW 231500Z 22006KT 180V240 15SM FEW220 14/M04 A3044 RMK CI1 CI TR SLP313=
METAR
LOCATION
CYOW - OTTAWA/MACDONALD-CARTIER INTL/ON
DATE - TIME
23 APRIL 2018 - 1500 UTC
WIND
220 TRUE @ 6  KNOTS
VARIATION
180 <-> 240  DEG
VISIBILITY
15 STAT.  MILES
RUNWAY VISUAL RANGE
WEATHER
CLOUDINESS
FEW CLOUDS (1/8 - 2/8) 22000  FT
TEMP / DEWPOINT
14 C / -4 C
ALTIMETER
30.44 IN HG
RECENT WEATHER
WIND SHEAR

TAF CYOW 231439Z 2315/2412 22005KT P6SM FEW220 RMK NXT FCST BY 231800Z=
TAF

23 APR 2018 - 1439 UTC
LOCATION

CYOW - OTTAWA/MACDONALD-CARTIER INTL/ON
VALIDITY [UTC]
23 APR - 1439 to
24 APR - 1200
 
TIMES
[UTC]
WIND
[DEGREES TRUE]
VISIBILITY
[STAT. MILES]
WEATHER
CLOUDINESS
[FEET AGL]
 
23 APR - 1500 to
24 APR - 1200
220 @ 5 KNOTS
6+
NIL
22000 FEW
REMARKS
THE NEXT FORECAST WILL BE ISSUED BY 1800 UTC ON DAY 23




GRAPHICAL FA CLOUDS & WEATHER FORECASTS
To the Product Selector
Graphical FA gfacn33      

GRAPHICAL FA ICING, TURBULENCE & FREEZING LEVEL FORECASTS
To the Product Selector
Graphical FA gfacn33      

FDTEXT Low Level FD. Temperatures are not forecast for the 3,000-foot level.
To the Product Selector
STN YOW - OTTAWA. ONT for use 3000 6000 9000 12000 18000
FDCN01 CWAO FCST BASED ON 231200 DATA VALID 231800 17-21 2009 2410+02 2518-01 2622-06 2928-17
FDCN02 CWAO FCST BASED ON 231200 DATA VALID 240000 21-06 2018 2425+04 2529+00 2635-06 2929-15
FDCN03 CWAO FCST BASED ON 231200 DATA VALID 241200 06-17 2533 2516+04 2415-03 2333-04 2527-15



Your time UTC time
Weather data provided by Environment Canada and NAV CANADA